Time;durP1;ratioP1;P1;durP2;ratioP2;P2;SDS_P1;SDS_P2;PMS_P1;PMS_P2;Temp;Humidity;BMP_temperature;BMP_pressure;BME280_temperature;BME280_humidity;BME280_pressure;Samples;Min_cycle;Max_cycle;Signal;HPM_P1;HPM_P2
2022/02/27 00:00:40;;;;;;;13.95;9.25;;;;;;;7.14;100.00;102189.22;4962617;28;20062;-71
2022/02/27 00:03:25;;;;;;;14.40;9.32;;;;;;;7.04;100.00;102196.00;4975884;28;20440;-70
2022/02/27 00:06:11;;;;;;;15.80;10.20;;;;;;;7.56;100.00;102190.03;4975577;28;20045;-71
2022/02/27 00:08:58;;;;;;;14.48;9.43;;;;;;;7.01;100.00;102182.00;4976161;28;20022;-70
2022/02/27 00:11:43;;;;;;;12.25;8.45;;;;;;;7.16;100.00;102182.31;4976371;28;20031;-70
2022/02/27 00:14:29;;;;;;;16.25;8.80;;;;;;;7.15;100.00;102178.81;4961116;28;20049;-71
2022/02/27 00:17:15;;;;;;;16.23;8.50;;;;;;;7.07;100.00;102179.53;4975607;28;20030;-71
2022/02/27 00:20:01;;;;;;;11.95;8.68;;;;;;;7.25;100.00;102185.09;4975793;28;20439;-71
2022/02/27 00:22:46;;;;;;;15.35;9.50;;;;;;;7.22;100.00;102178.09;4975666;28;20443;-71
2022/02/27 00:25:32;;;;;;;13.55;8.43;;;;;;;7.35;100.00;102179.22;4974988;28;20023;-70
2022/02/27 00:28:18;;;;;;;12.90;8.40;;;;;;;7.13;100.00;102172.72;4962197;28;20031;-70
2022/02/27 00:31:03;;;;;;;13.05;8.88;;;;;;;7.10;100.00;102169.16;4976607;28;20023;-70
2022/02/27 00:33:49;;;;;;;11.13;7.90;;;;;;;6.97;100.00;102170.66;4976088;28;20030;-70
2022/02/27 00:36:35;;;;;;;11.82;8.05;;;;;;;7.01;100.00;102167.25;4974508;28;20046;-70
2022/02/27 00:39:21;;;;;;;13.80;7.72;;;;;;;7.27;100.00;102168.63;4962153;28;20027;-71
2022/02/27 00:42:07;;;;;;;13.20;8.82;;;;;;;7.00;100.00;102167.22;4974731;28;20114;-70
2022/02/27 00:44:53;;;;;;;14.48;9.25;;;;;;;7.01;100.00;102169.88;4975743;28;20027;-71
2022/02/27 00:47:39;;;;;;;13.52;8.23;;;;;;;7.06;100.00;102164.72;4975668;28;20037;-70
2022/02/27 00:50:26;;;;;;;15.07;8.60;;;;;;;7.18;100.00;102171.06;4961241;28;20089;-71
2022/02/27 00:53:12;;;;;;;11.55;7.13;;;;;;;7.06;100.00;102167.31;4975577;28;20019;-70
2022/02/27 00:55:58;;;;;;;10.77;7.45;;;;;;;6.93;100.00;102167.94;4975494;28;20034;-71
2022/02/27 00:58:50;;;;;;;11.07;7.28;;;;;;;6.84;100.00;102168.66;4975417;28;20520;-71
2022/02/27 01:01:36;;;;;;;11.52;7.57;;;;;;;6.94;100.00;102165.38;4975142;28;20034;-70
2022/02/27 01:04:21;;;;;;;14.82;7.97;;;;;;;6.81;100.00;102165.09;4973769;28;20023;-71
2022/02/27 01:07:07;;;;;;;13.73;7.43;;;;;;;6.59;100.00;102161.13;4960611;28;20027;-71
2022/02/27 01:09:53;;;;;;;12.77;7.70;;;;;;;6.93;100.00;102161.00;4974849;28;20088;-70
2022/02/27 01:12:39;;;;;;;12.48;8.00;;;;;;;6.81;100.00;102163.38;4974607;28;20447;-70
2022/02/27 01:15:25;;;;;;;16.13;7.85;;;;;;;6.75;100.00;102162.38;4962080;28;20046;-71
2022/02/27 01:18:10;;;;;;;13.32;7.57;;;;;;;7.00;100.00;102157.69;4974357;28;20031;-71
2022/02/27 01:20:56;;;;;;;14.70;7.68;;;;;;;6.93;100.00;102161.00;4976000;28;20050;-70
2022/02/27 01:23:47;;;;;;;12.18;7.65;;;;;;;6.62;100.00;102161.22;4975836;28;20034;-70
2022/02/27 01:26:33;;;;;;;14.60;7.60;;;;;;;6.94;100.00;102167.09;4974601;28;20019;-71
2022/02/27 01:29:19;;;;;;;15.10;7.70;;;;;;;6.90;100.00;102166.16;4975049;28;20030;-71
2022/02/27 01:32:05;;;;;;;11.10;7.43;;;;;;;7.35;100.00;102164.44;4974230;28;20121;-71
2022/02/27 01:34:52;;;;;;;13.35;7.68;;;;;;;6.87;100.00;102162.63;4974562;28;20146;-71
2022/02/27 01:37:38;;;;;;;10.13;7.13;;;;;;;6.78;100.00;102162.41;4974338;28;20035;-71
2022/02/27 01:40:24;;;;;;;11.07;7.15;;;;;;;6.91;100.00;102161.84;4974786;28;20400;-71
2022/02/27 01:43:10;;;;;;;13.48;7.57;;;;;;;7.06;100.00;102167.31;4974768;28;20047;-70
2022/02/27 01:45:56;;;;;;;11.20;7.10;;;;;;;7.10;100.00;102172.63;4974654;28;20409;-70
2022/02/27 01:48:41;;;;;;;10.43;7.55;;;;;;;7.30;100.00;102179.13;4974194;28;20419;-70
2022/02/27 01:51:27;;;;;;;12.45;7.50;;;;;;;7.05;100.00;102168.19;4960844;28;20458;-70
2022/02/27 01:54:13;;;;;;;10.95;7.45;;;;;;;6.73;100.00;102161.44;4973688;28;20081;-70
2022/02/27 01:56:59;;;;;;;11.75;7.78;;;;;;;6.80;100.00;102166.81;4973296;28;20029;-70
2022/02/27 01:59:45;;;;;;;10.32;7.40;;;;;;;6.98;100.00;102161.09;4974438;28;20042;-70
2022/02/27 02:02:31;;;;;;;13.43;7.88;;;;;;;6.98;100.00;102171.50;4974746;28;20030;-70
2022/02/27 02:05:17;;;;;;;11.18;7.93;;;;;;;6.79;100.00;102169.41;4979503;28;20031;-71
2022/02/27 02:08:03;;;;;;;11.07;7.82;;;;;;;7.02;100.00;102168.13;4978434;28;20125;-70
2022/02/27 02:10:49;;;;;;;12.20;8.07;;;;;;;6.91;100.00;102164.44;4979029;28;20637;-71
2022/02/27 02:13:35;;;;;;;13.90;7.93;;;;;;;7.05;100.00;102171.69;4978961;28;20029;-72
2022/02/27 02:16:21;;;;;;;13.98;8.55;;;;;;;7.10;100.00;102171.75;4977535;28;20034;-71
2022/02/27 02:19:06;;;;;;;12.45;7.97;;;;;;;6.93;100.00;102162.72;4977242;28;20109;-70
2022/02/27 02:21:58;;;;;;;11.70;8.13;;;;;;;7.15;100.00;102155.34;4977626;28;20336;-70
2022/02/27 02:24:44;;;;;;;11.20;7.35;;;;;;;6.99;100.00;102152.44;4977946;28;20038;-71
2022/02/27 02:27:32;;;;;;;12.98;8.07;;;;;;;6.70;100.00;102153.56;4977650;28;20034;-70
2022/02/27 02:30:17;;;;;;;12.90;7.95;;;;;;;7.27;100.00;102152.13;4977834;28;20429;-71
2022/02/27 06:17:15;;;;;;;17.40;11.20;;;;;;;4.75;100.00;102243.81;5932910;23;20120;-70
2022/02/27 06:20:02;;;;;;;21.90;11.43;;;;;;;4.84;100.00;102245.81;4955839;28;20491;-70
2022/02/27 06:22:49;;;;;;;19.25;12.05;;;;;;;4.71;100.00;102257.53;4950002;28;20036;-70
2022/02/27 06:25:35;;;;;;;18.90;12.18;;;;;;;5.15;100.00;102254.53;4936249;29;20059;-71
2022/02/27 06:28:21;;;;;;;23.00;13.15;;;;;;;5.38;100.00;102253.47;4923050;29;20027;-72
2022/02/27 06:31:06;;;;;;;25.27;13.30;;;;;;;5.46;100.00;102263.22;4936682;29;20046;-71
2022/02/27 06:33:52;;;;;;;22.20;13.40;;;;;;;5.32;100.00;102262.81;4936185;29;20170;-71
2022/02/27 06:36:38;;;;;;;21.25;13.02;;;;;;;4.99;100.00;102262.72;4936085;29;20032;-71
2022/02/27 06:39:24;;;;;;;27.65;13.85;;;;;;;5.07;100.00;102268.16;4936195;29;20058;-71
2022/02/27 06:42:09;;;;;;;24.75;14.32;;;;;;;5.28;100.00;102276.56;4936036;29;20032;-71
2022/02/27 06:44:55;;;;;;;23.10;13.38;;;;;;;5.51;100.00;102279.81;4935958;29;20036;-71
2022/02/27 06:47:41;;;;;;;20.73;13.15;;;;;;;5.55;100.00;102284.25;4936308;29;20148;-71
2022/02/27 06:50:27;;;;;;;21.38;11.73;;;;;;;5.44;100.00;102286.56;4925409;29;20031;-71
2022/02/27 06:53:12;;;;;;;22.27;11.15;;;;;;;5.53;100.00;102286.81;4939593;29;20460;-71
2022/02/27 06:55:58;;;;;;;20.75;11.25;;;;;;;5.66;100.00;102288.03;4925811;29;20066;-70
2022/02/27 06:58:44;;;;;;;17.88;10.73;;;;;;;5.54;100.00;102275.56;4939361;29;20478;-70
2022/02/27 07:01:30;;;;;;;16.52;10.25;;;;;;;5.60;100.00;102277.44;4939732;29;20421;-70
2022/02/27 07:04:15;;;;;;;18.10;10.90;;;;;;;5.43;100.00;102278.72;4939047;29;20043;-71
2022/02/27 07:07:01;;;;;;;22.90;10.98;;;;;;;5.55;100.00;102271.25;4939817;29;20035;-70
2022/02/27 07:09:47;;;;;;;23.45;13.02;;;;;;;5.87;100.00;102271.28;4940141;29;20020;-70
2022/02/27 07:12:36;;;;;;;20.33;12.18;;;;;;;5.57;100.00;102259.16;4939611;29;20047;-70
2022/02/27 07:15:22;;;;;;;19.80;11.10;;;;;;;5.88;100.00;102261.78;4925802;29;20038;-71
2022/02/27 07:18:08;;;;;;;23.27;13.23;;;;;;;5.90;100.00;102263.56;4938155;29;20114;-71
2022/02/27 07:20:53;;;;;;;22.88;13.05;;;;;;;6.13;100.00;102256.34;4925077;29;20082;-71
2022/02/27 07:23:39;;;;;;;21.52;12.40;;;;;;;5.93;100.00;102261.06;4939178;29;20032;-71
2022/02/27 07:26:25;;;;;;;21.85;13.43;;;;;;;5.76;100.00;102264.03;4938561;29;20035;-72
2022/02/27 07:29:11;;;;;;;21.10;12.45;;;;;;;5.73;100.00;102262.22;4939021;29;20063;-71
2022/02/27 07:31:57;;;;;;;25.10;14.02;;;;;;;6.00;100.00;102262.09;4938901;29;20067;-74
2022/02/27 07:34:43;;;;;;;23.95;11.85;;;;;;;5.66;100.00;102249.03;4939290;29;20059;-71
2022/02/27 07:37:29;;;;;;;20.38;11.98;;;;;;;5.61;100.00;102248.91;4939152;29;20035;-71
2022/02/27 07:40:15;;;;;;;20.23;11.80;;;;;;;6.02;100.00;102250.88;4938929;29;20416;-72
2022/02/27 07:43:01;;;;;;;20.45;11.15;;;;;;;6.42;100.00;102239.72;4938544;29;20040;-72
2022/02/27 07:45:47;;;;;;;19.05;11.65;;;;;;;5.76;100.00;102236.31;4938500;29;20438;-72
2022/02/27 07:48:33;;;;;;;17.85;9.88;;;;;;;5.80;100.00;102232.94;4939315;29;20037;-71
2022/02/27 07:51:18;;;;;;;16.23;10.23;;;;;;;5.72;100.00;102228.38;4911930;29;20451;-72
2022/02/27 07:54:04;;;;;;;20.67;11.82;;;;;;;5.71;100.00;102221.44;4938295;29;20047;-72
2022/02/27 07:56:50;;;;;;;21.40;12.85;;;;;;;5.98;100.00;102210.03;4924702;29;20028;-71
2022/02/27 07:59:36;;;;;;;20.45;11.80;;;;;;;6.44;100.00;102205.09;4938728;29;20023;-72
2022/02/27 08:02:22;;;;;;;20.50;11.15;;;;;;;6.20;100.00;102206.22;4923340;29;20075;-72
2022/02/27 08:05:08;;;;;;;19.27;10.63;;;;;;;6.40;100.00;102203.25;4939017;29;20110;-71
2022/02/27 08:07:56;;;;;;;18.13;10.90;;;;;;;6.46;100.00;102203.38;4937761;29;20051;-71
2022/02/27 08:10:42;;;;;;;17.08;10.20;;;;;;;6.76;100.00;102200.56;4924653;29;20062;-71
2022/02/27 08:13:27;;;;;;;18.50;11.27;;;;;;;6.81;100.00;102193.72;4937338;29;20024;-73
2022/02/27 08:16:13;;;;;;;21.88;13.60;;;;;;;6.47;100.00;102197.31;4924406;29;20094;-73
2022/02/27 08:18:59;;;;;;;17.67;9.10;;;;;;;6.68;100.00;102199.53;4938353;29;20490;-71
2022/02/27 08:21:45;;;;;;;16.98;8.38;;;;;;;6.89;100.00;102192.16;4937112;29;20034;-72
2022/02/27 08:24:30;;;;;;;11.10;7.35;;;;;;;7.19;100.00;102201.50;4910868;29;20020;-72
2022/02/27 08:27:16;;;;;;;13.77;8.73;;;;;;;7.07;100.00;102206.44;4937443;29;20027;-72
2022/02/27 08:30:03;;;;;;;12.52;8.20;;;;;;;7.55;100.00;102194.38;4937185;29;20031;-72
2022/02/27 08:32:50;;;;;;;17.90;8.00;;;;;;;7.02;100.00;102187.25;4936312;29;20035;-72
2022/02/27 08:35:35;;;;;;;14.27;8.30;;;;;;;6.94;100.00;102182.72;4937203;29;20110;-72
2022/02/27 08:38:22;;;;;;;14.45;8.35;;;;;;;7.21;100.00;102180.66;4936926;29;20032;-72
2022/02/27 08:41:07;;;;;;;14.60;7.93;;;;;;;7.66;100.00;102173.69;4937302;29;20353;-71
2022/02/27 08:43:53;;;;;;;18.85;10.80;;;;;;;7.68;100.00;102164.16;4936681;29;20049;-71
2022/02/27 08:46:39;;;;;;;15.40;8.57;;;;;;;7.63;100.00;102174.50;4937857;29;20461;-71
2022/02/27 08:49:25;;;;;;;13.95;8.65;;;;;;;8.29;100.00;102157.38;4936781;29;20031;-72
2022/02/27 08:52:12;;;;;;;16.85;9.35;;;;;;;8.74;98.46;102157.13;4924842;29;20043;-72
2022/02/27 08:54:58;;;;;;;17.60;9.38;;;;;;;8.03;100.00;102158.66;4936424;29;20038;-72
2022/02/27 08:57:45;;;;;;;18.52;9.68;;;;;;;8.27;99.60;102166.03;4936668;29;20070;-72
2022/02/27 09:00:31;;;;;;;17.95;9.85;;;;;;;7.98;100.00;102162.94;4936292;29;20032;-72
2022/02/27 09:03:16;;;;;;;15.90;9.75;;;;;;;8.53;100.00;102155.09;4923022;29;20441;-72
2022/02/27 09:06:03;;;;;;;14.77;8.48;;;;;;;8.99;93.36;102156.56;4937258;29;20028;-72
2022/02/27 09:08:49;;;;;;;17.08;9.30;;;;;;;8.05;100.00;102163.91;4936578;29;20028;-71
2022/02/27 09:11:35;;;;;;;13.25;8.38;;;;;;;8.17;100.00;102171.94;4936465;29;20034;-72
2022/02/27 09:14:21;;;;;;;13.75;7.78;;;;;;;8.59;99.84;102163.03;4936024;29;20031;-72
2022/02/27 09:17:06;;;;;;;24.38;12.90;;;;;;;8.52;100.00;102160.31;4936528;29;20035;-72
2022/02/27 09:19:52;;;;;;;17.27;9.60;;;;;;;8.76;97.85;102165.88;4936923;29;20050;-72
2022/02/27 09:22:38;;;;;;;20.10;10.15;;;;;;;8.09;100.00;102163.13;4923249;29;20110;-70
2022/02/27 09:25:24;;;;;;;47.42;17.77;;;;;;;8.02;100.00;102164.75;4937458;29;20031;-71
2022/02/27 09:28:10;;;;;;;36.40;16.88;;;;;;;7.98;100.00;102165.56;4936780;29;20090;-71
2022/02/27 09:30:56;;;;;;;83.10;30.88;;;;;;;8.23;100.00;102157.28;4936739;29;20059;-71
2022/02/27 09:33:41;;;;;;;61.53;25.80;;;;;;;8.56;100.00;102154.28;4923725;29;20027;-72
2022/02/27 09:36:27;;;;;;;65.28;25.75;;;;;;;8.96;100.00;102159.16;4937073;29;20023;-72
2022/02/27 09:39:13;;;;;;;19.30;10.57;;;;;;;8.61;100.00;102149.97;4936616;29;20038;-72
2022/02/27 09:41:59;;;;;;;16.00;9.23;;;;;;;8.86;98.65;102154.66;4937202;29;20028;-72
2022/02/27 09:44:45;;;;;;;17.15;9.40;;;;;;;9.06;98.02;102147.94;4910297;29;20027;-71
2022/02/27 09:47:32;;;;;;;31.70;19.80;;;;;;;9.31;95.34;102143.00;4909964;29;20050;-72
2022/02/27 09:50:19;;;;;;;16.85;10.02;;;;;;;9.05;94.63;102147.03;4936357;29;20114;-71
2022/02/27 09:53:09;;;;;;;25.33;16.13;;;;;;;9.04;97.98;102132.22;4936736;29;20019;-72
2022/02/27 09:55:55;;;;;;;21.08;9.75;;;;;;;9.11;96.58;102139.28;4936487;29;20368;-72
2022/02/27 09:58:41;;;;;;;15.35;8.60;;;;;;;9.35;94.98;102130.81;4922716;29;20031;-72
2022/02/27 10:01:27;;;;;;;15.18;8.00;;;;;;;9.08;95.18;102127.88;4936533;29;20039;-72
2022/02/27 10:04:21;;;;;;;17.05;9.38;;;;;;;9.28;96.18;102124.63;4936063;29;20479;-71
2022/02/27 10:07:08;;;;;;;15.27;8.82;;;;;;;9.37;92.45;102129.09;4909749;29;20074;-71
2022/02/27 10:10:06;;;;;;;21.55;11.73;;;;;;;9.60;90.46;102127.53;4936017;29;20177;-72
2022/02/27 10:12:53;;;;;;;15.63;9.05;;;;;;;9.24;92.39;102129.81;4936080;29;20051;-71
2022/02/27 10:15:38;;;;;;;14.27;8.65;;;;;;;9.00;94.45;102130.44;4936272;29;20496;-72
2022/02/27 10:18:24;;;;;;;16.48;9.52;;;;;;;9.12;92.61;102134.91;4935691;29;20420;-74
2022/02/27 10:21:19;;;;;;;16.70;9.52;;;;;;;8.90;89.40;102128.59;4935902;29;20114;-72
2022/02/27 10:24:08;;;;;;;16.13;9.90;;;;;;;9.08;90.68;102135.72;4937282;29;20043;-72
2022/02/27 10:26:53;;;;;;;17.83;10.05;;;;;;;9.02;90.25;102133.06;4939953;29;20042;-72
2022/02/27 10:29:39;;;;;;;14.85;9.27;;;;;;;8.88;92.18;102125.06;4940673;29;20472;-72
2022/02/27 10:32:28;;;;;;;18.02;10.07;;;;;;;9.36;88.78;102137.78;4939653;29;20118;-72
2022/02/27 10:35:34;;;;;;;19.27;12.02;;;;;;;9.32;89.14;102133.38;4940389;29;20068;-72
2022/02/27 10:41:39;;;;;;;15.38;9.13;;;;;;;9.53;86.84;102126.63;4940100;29;20042;-72
2022/02/27 10:44:25;;;;;;;12.57;8.43;;;;;;;8.79;89.14;102130.19;4938847;29;20034;-71
2022/02/27 10:47:20;;;;;;;14.50;8.23;;;;;;;9.02;91.25;102117.38;4939385;29;20461;-72
2022/02/27 10:50:16;;;;;;;17.13;9.63;;;;;;;8.90;88.57;102118.13;4938877;29;20036;-71
2022/02/27 10:53:02;;;;;;;14.38;7.43;;;;;;;8.66;90.53;102110.00;4939020;29;20561;-71
2022/02/27 10:55:58;;;;;;;17.58;11.77;;;;;;;9.41;88.21;102112.56;4938857;29;20452;-72
2022/02/27 10:58:48;;;;;;;17.85;8.88;;;;;;;9.24;87.40;102106.28;4939442;29;20460;-71
2022/02/27 11:01:38;;;;;;;15.23;8.07;;;;;;;9.62;84.60;102104.91;4938636;29;20091;-72
2022/02/27 11:04:25;;;;;;;13.88;8.13;;;;;;;8.72;89.39;102103.97;4938987;29;20441;-71
2022/02/27 11:07:12;;;;;;;12.93;8.27;;;;;;;8.98;89.33;102095.56;4912453;29;20032;-72
2022/02/27 11:09:58;;;;;;;12.55;7.82;;;;;;;9.02;87.81;102094.75;4938744;29;20471;-72
2022/02/27 11:12:44;;;;;;;12.10;6.85;;;;;;;8.68;89.07;102094.34;4925147;29;20031;-71
2022/02/27 11:15:30;;;;;;;12.15;7.10;;;;;;;8.89;88.79;102084.13;4938914;29;20429;-72
2022/02/27 11:18:17;;;;;;;14.00;6.78;;;;;;;8.60;87.70;102081.16;4938605;29;20134;-72
2022/02/27 11:21:04;;;;;;;11.27;6.60;;;;;;;8.90;85.62;102080.66;4912227;29;20027;-72
2022/02/27 11:23:50;;;;;;;14.55;6.82;;;;;;;9.02;84.28;102070.34;4912952;29;20027;-72
2022/02/27 11:26:36;;;;;;;13.25;6.40;;;;;;;9.03;83.11;102078.19;4938097;29;20032;-72
2022/02/27 11:29:22;;;;;;;12.65;6.55;;;;;;;8.87;82.29;102070.16;4938936;29;20024;-72
2022/02/27 11:32:09;;;;;;;11.15;6.55;;;;;;;8.73;82.28;102064.78;4938150;29;20024;-71
2022/02/27 11:34:55;;;;;;;11.70;6.57;;;;;;;8.86;79.25;102063.19;4938074;29;20086;-72
2022/02/27 11:37:49;;;;;;;9.68;6.30;;;;;;;8.91;78.94;102062.38;4938030;29;20134;-72
2022/02/27 11:40:45;;;;;;;10.20;5.88;;;;;;;8.74;80.82;102053.50;4938038;29;20120;-72
2022/02/27 11:43:41;;;;;;;11.35;6.32;;;;;;;8.64;83.48;102049.00;4938242;29;20039;-71
2022/02/27 11:46:35;;;;;;;13.07;6.63;;;;;;;8.62;84.06;102045.50;4912001;29;20468;-72
2022/02/27 11:49:28;;;;;;;12.02;6.70;;;;;;;8.66;83.57;102038.56;4912083;29;20387;-72
2022/02/27 11:52:15;;;;;;;9.80;5.82;;;;;;;8.74;84.27;102031.69;4938358;29;20091;-71
2022/02/27 11:55:02;;;;;;;10.65;6.53;;;;;;;9.04;81.88;102030.25;4937884;29;20032;-72
2022/02/27 11:57:48;;;;;;;8.45;5.70;;;;;;;9.13;82.13;102012.03;4937941;29;20034;-72
2022/02/27 12:00:39;;;;;;;9.48;6.13;;;;;;;8.84;82.06;102021.34;4937890;29;20042;-73
2022/02/27 12:03:31;;;;;;;10.15;6.07;;;;;;;8.99;80.15;102015.41;4937580;29;20032;-72
2022/02/27 12:06:17;;;;;;;14.13;6.22;;;;;;;8.95;79.72;102013.63;4938368;29;20039;-73
2022/02/27 12:09:12;;;;;;;10.95;5.70;;;;;;;9.12;78.58;102004.19;4937565;29;20064;-72
2022/02/27 12:11:58;;;;;;;10.13;5.82;;;;;;;9.27;76.53;101994.75;4937653;29;20381;-72
2022/02/27 12:14:51;;;;;;;9.55;5.43;;;;;;;8.94;75.81;101993.56;4937546;29;20027;-72
2022/02/27 12:18:15;;;;;;;12.57;5.10;;;;;;;8.83;74.46;102006.53;4937254;29;20062;-71
2022/02/27 12:21:01;;;;;;;8.57;4.90;;;;;;;8.85;75.44;101993.50;4937483;29;20472;-72
2022/02/27 12:23:48;;;;;;;12.65;6.00;;;;;;;8.89;74.20;101984.81;4937393;29;20054;-72
2022/02/27 12:26:34;;;;;;;10.00;5.20;;;;;;;9.01;73.01;101980.56;4910985;29;20031;-72
2022/02/27 12:29:27;;;;;;;10.82;4.82;;;;;;;8.89;72.07;101982.22;4924133;29;20364;-73
2022/02/27 12:32:15;;;;;;;7.10;4.30;;;;;;;8.94;72.57;101977.88;4936849;29;20031;-72
2022/02/27 12:35:00;;;;;;;9.90;5.40;;;;;;;9.04;71.74;101980.59;4910866;29;20031;-71
2022/02/27 12:37:46;;;;;;;10.27;5.75;;;;;;;9.12;72.62;101967.56;4936869;29;20372;-72
2022/02/27 12:40:33;;;;;;;9.38;5.25;;;;;;;9.18;72.55;101963.31;4937362;29;20473;-73
2022/02/27 12:43:19;;;;;;;14.50;6.15;;;;;;;9.35;72.26;101963.41;4936732;29;20397;-72
2022/02/27 12:46:06;;;;;;;11.15;5.53;;;;;;;9.48;71.13;101968.75;4936634;29;20028;-72
2022/02/27 12:52:00;;;;;;;13.48;6.22;;;;;;;9.26;71.16;101961.63;4937823;29;20406;-72
2022/02/27 12:54:51;;;;;;;9.13;4.97;;;;;;;9.21;69.77;101959.84;4936672;29;20047;-73
2022/02/27 12:57:44;;;;;;;8.18;4.32;;;;;;;9.25;68.73;101954.63;4936752;29;20027;-72
2022/02/27 13:00:31;;;;;;;9.95;4.10;;;;;;;9.18;65.48;101955.47;4936878;29;20364;-73
2022/02/27 13:03:18;;;;;;;8.32;4.00;;;;;;;9.75;63.57;101947.09;4936604;29;20020;-72
2022/02/27 13:06:04;;;;;;;7.45;4.13;;;;;;;9.78;63.04;101949.75;4936997;29;20512;-72
2022/02/27 13:08:50;;;;;;;10.20;5.07;;;;;;;9.78;63.61;101932.28;4936485;29;20027;-72
2022/02/27 13:11:44;;;;;;;7.93;4.50;;;;;;;9.99;62.24;101942.00;4936696;29;20036;-73
2022/02/27 13:14:29;;;;;;;9.90;4.88;;;;;;;9.44;63.40;101934.69;4910147;29;20031;-72
2022/02/27 13:17:23;;;;;;;12.88;5.15;;;;;;;9.58;64.33;101923.47;4937309;29;20028;-73
2022/02/27 13:20:15;;;;;;;11.02;4.47;;;;;;;9.58;64.76;101927.81;4936517;29;20031;-74
2022/02/27 13:23:01;;;;;;;6.72;4.18;;;;;;;9.79;63.25;101925.31;4936757;29;20456;-76
2022/02/27 13:25:47;;;;;;;9.48;4.50;;;;;;;9.48;64.45;101934.75;4936220;29;20118;-72
2022/02/27 13:28:33;;;;;;;9.13;4.90;;;;;;;9.13;64.67;101924.91;4936503;29;20041;-72
2022/02/27 13:31:20;;;;;;;7.93;4.75;;;;;;;9.34;64.43;101918.09;4936267;29;20031;-73
2022/02/27 13:34:06;;;;;;;7.93;4.10;;;;;;;9.23;65.03;101925.00;4936491;29;20031;-71
2022/02/27 13:36:52;;;;;;;9.13;5.18;;;;;;;9.70;64.44;101920.03;4936313;29;20032;-72
2022/02/27 13:39:38;;;;;;;8.02;4.30;;;;;;;9.62;64.89;101927.81;4936413;29;20035;-73
2022/02/27 13:42:24;;;;;;;6.88;3.83;;;;;;;9.51;64.60;101928.66;4936122;29;20031;-72
2022/02/27 13:45:32;;;;;;;10.30;3.33;;;;;;;9.65;63.92;101921.78;4936298;29;20039;-72
2022/02/27 13:48:28;;;;;;;9.38;4.13;;;;;;;10.11;62.63;101926.38;4936498;29;20039;-72
2022/02/27 13:51:26;;;;;;;7.88;4.30;;;;;;;9.70;61.79;101923.50;4936844;29;20460;-72
2022/02/27 13:54:21;;;;;;;6.25;3.65;;;;;;;9.91;61.55;101926.25;4936285;29;20467;-72
2022/02/27 13:57:10;;;;;;;4.93;2.97;;;;;;;9.78;61.68;101923.56;4935974;29;20024;-71
2022/02/27 13:59:56;;;;;;;7.20;3.50;;;;;;;9.60;61.13;101913.88;4938454;29;20027;-73
2022/02/27 14:02:43;;;;;;;6.55;3.22;;;;;;;9.48;60.38;101915.53;4939755;29;20023;-72
2022/02/27 14:05:30;;;;;;;4.65;3.20;;;;;;;9.46;59.58;101919.91;4940069;29;20024;-72
2022/02/27 14:08:16;;;;;;;5.82;2.80;;;;;;;9.44;59.64;101916.38;4939732;29;20036;-73
2022/02/27 14:11:07;;;;;;;10.82;3.03;;;;;;;9.78;59.32;101918.34;4940000;29;20410;-72
2022/02/27 14:13:56;;;;;;;6.55;3.00;;;;;;;9.80;57.24;101911.34;4939581;29;20042;-72
2022/02/27 14:16:42;;;;;;;5.95;3.25;;;;;;;9.65;56.70;101906.06;4940113;29;20032;-73
2022/02/27 14:19:28;;;;;;;6.38;2.70;;;;;;;9.45;56.64;101897.22;4920873;29;20056;-70
2022/02/27 14:22:14;;;;;;;6.07;2.65;;;;;;;9.38;56.47;101906.78;4904050;29;20357;-71
2022/02/27 14:24:59;;;;;;;4.45;2.65;;;;;;;9.43;55.60;101901.56;4907296;29;20021;-71
2022/02/27 14:27:45;;;;;;;7.35;3.30;;;;;;;9.40;55.72;101901.53;4920342;29;20083;-72
2022/02/27 14:30:34;;;;;;;7.25;3.28;;;;;;;9.52;55.62;101904.22;4920621;29;20032;-72
2022/02/27 14:33:20;;;;;;;8.32;3.90;;;;;;;9.41;55.31;101901.56;4903237;29;20442;-73
2022/02/27 14:36:07;;;;;;;6.47;3.70;;;;;;;9.56;54.02;101891.19;4906155;29;20028;-72
2022/02/27 14:38:54;;;;;;;9.25;4.10;;;;;;;9.51;54.64;101892.03;4920715;29;20036;-72
2022/02/27 14:41:42;;;;;;;5.35;3.65;;;;;;;9.46;53.70;101894.63;4902822;29;20043;-72
2022/02/27 14:44:29;;;;;;;9.43;3.90;;;;;;;9.47;54.38;101890.25;4920378;29;20032;-73
2022/02/27 14:47:15;;;;;;;5.57;3.35;;;;;;;9.48;54.29;101889.38;4901821;29;20032;-71
2022/02/27 14:50:01;;;;;;;11.63;3.60;;;;;;;9.42;54.21;101886.75;4900815;29;20040;-72
2022/02/27 14:52:47;;;;;;;5.45;2.70;;;;;;;9.25;54.48;101881.41;4902341;29;20456;-73
2022/02/27 14:55:33;;;;;;;7.88;3.47;;;;;;;9.41;54.92;101878.00;4902095;29;20033;-73
2022/02/27 14:58:18;;;;;;;4.38;2.85;;;;;;;9.35;54.29;101870.16;4903141;29;20033;-71
2022/02/27 15:01:06;;;;;;;6.75;3.40;;;;;;;9.26;54.41;101870.09;4902165;29;20038;-72
2022/02/27 15:03:52;;;;;;;6.30;3.30;;;;;;;9.54;53.85;101873.72;4920088;29;20042;-71
2022/02/27 15:06:37;;;;;;;5.72;3.95;;;;;;;9.56;54.43;101871.97;4902451;29;20513;-72
2022/02/27 15:09:23;;;;;;;6.57;4.10;;;;;;;9.29;54.67;101882.31;4905774;29;20036;-71
2022/02/27 15:12:09;;;;;;;7.55;3.50;;;;;;;9.33;55.04;101877.09;4902442;29;20032;-72
2022/02/27 15:14:55;;;;;;;6.90;3.60;;;;;;;9.30;55.37;101874.47;4918900;29;20024;-71
2022/02/27 15:17:41;;;;;;;7.53;3.80;;;;;;;9.14;55.40;101877.88;4911099;29;20114;-71
2022/02/27 15:20:27;;;;;;;7.35;3.70;;;;;;;9.05;54.60;101877.78;4925519;29;20035;-72
2022/02/27 15:23:13;;;;;;;9.57;3.83;;;;;;;9.16;55.57;101876.13;4912387;29;20032;-72
2022/02/27 15:26:02;;;;;;;5.57;3.97;;;;;;;8.98;55.29;101878.63;4938560;29;20028;-71
2022/02/27 15:28:48;;;;;;;8.55;5.07;;;;;;;8.95;55.67;101873.34;4938202;29;20038;-71
2022/02/27 15:31:34;;;;;;;7.38;4.18;;;;;;;9.01;55.36;101889.06;4938327;29;20028;-72
2022/02/27 15:34:20;;;;;;;8.95;5.25;;;;;;;8.98;55.53;101881.22;4938352;29;20031;-71
2022/02/27 15:37:06;;;;;;;7.55;3.92;;;;;;;8.79;55.82;101884.56;4938286;29;20102;-71
2022/02/27 15:39:52;;;;;;;7.43;3.97;;;;;;;8.89;55.46;101883.75;4938293;29;20038;-70
2022/02/27 15:42:38;;;;;;;9.27;5.03;;;;;;;8.80;56.15;101882.84;4938134;29;20031;-72
2022/02/27 15:45:23;;;;;;;17.13;8.05;;;;;;;8.98;56.28;101886.47;4938423;29;20047;-72
2022/02/27 15:48:09;;;;;;;11.73;5.18;;;;;;;8.90;56.43;101889.88;4938667;29;20099;-72
2022/02/27 15:50:55;;;;;;;11.05;7.07;;;;;;;8.96;56.62;101887.31;4937919;29;20063;-72
2022/02/27 15:53:42;;;;;;;6.90;4.32;;;;;;;9.14;55.90;101885.72;4937991;29;20142;-71
2022/02/27 15:56:32;;;;;;;17.50;9.00;;;;;;;8.87;56.66;101900.28;4937667;29;20368;-71
2022/02/27 15:59:17;;;;;;;8.88;5.53;;;;;;;8.76;57.63;101896.72;4938110;29;20438;-72
2022/02/27 16:02:05;;;;;;;10.60;3.55;;;;;;;8.81;57.07;101884.56;4937713;29;20034;-74
2022/02/27 16:04:51;;;;;;;7.30;4.78;;;;;;;8.85;56.55;101881.13;4937787;29;20071;-72
2022/02/27 16:07:37;;;;;;;9.25;3.90;;;;;;;8.71;57.11;101896.69;4911985;29;20036;-72
2022/02/27 16:10:23;;;;;;;10.18;4.80;;;;;;;8.64;57.67;101892.25;4937733;29;20448;-72
2022/02/27 16:13:09;;;;;;;7.03;5.38;;;;;;;8.83;58.04;101904.63;4937363;29;20031;-72
2022/02/27 16:15:55;;;;;;;6.45;4.10;;;;;;;8.84;58.08;101897.69;4937554;29;20453;-72
2022/02/27 16:18:43;;;;;;;7.10;4.60;;;;;;;8.86;58.17;101911.59;4937297;29;20544;-72
2022/02/27 16:21:30;;;;;;;16.17;12.25;;;;;;;8.84;59.02;101910.75;4937109;29;20132;-72
2022/02/27 16:24:15;;;;;;;9.80;7.03;;;;;;;8.55;58.47;101917.41;4937738;29;20466;-72
2022/02/27 16:27:01;;;;;;;7.20;4.60;;;;;;;8.71;58.42;101911.47;4937422;29;20035;-71
2022/02/27 16:29:47;;;;;;;12.07;8.35;;;;;;;8.96;58.03;101908.22;4937552;29;20417;-71
2022/02/27 16:32:34;;;;;;;7.53;4.45;;;;;;;8.84;57.72;101910.75;4936956;29;20030;-72
2022/02/27 16:35:20;;;;;;;6.93;4.45;;;;;;;8.63;58.26;101913.13;4937379;29;20472;-71
2022/02/27 16:38:06;;;;;;;14.18;10.68;;;;;;;8.90;58.75;101916.00;4936941;29;20047;-72
2022/02/27 16:40:52;;;;;;;10.68;6.22;;;;;;;8.83;58.82;101916.81;4937799;29;20039;-72
2022/02/27 16:43:40;;;;;;;9.45;4.82;;;;;;;8.79;59.22;101920.25;4936797;29;20404;-72